createdAt,value
2019-02-25T00:01:40.431Z,28.50
2019-02-25T00:04:32.868Z,28.50
2019-02-25T00:07:25.241Z,28.50
2019-02-25T00:10:17.632Z,28.50
2019-02-25T00:13:10.208Z,28.50
2019-02-25T00:16:02.326Z,28.50
2019-02-25T00:18:54.584Z,28.50
2019-02-25T00:21:46.902Z,28.50
2019-02-25T00:24:39.274Z,28.50
2019-02-25T00:27:31.905Z,28.50
2019-02-25T00:30:25.205Z,28.50
2019-02-25T00:33:17.675Z,28.50
2019-02-25T00:36:10.118Z,28.50
2019-02-25T00:39:02.691Z,28.50
2019-02-25T00:41:56.140Z,28.50
2019-02-25T00:44:48.357Z,28.50
2019-02-25T00:47:40.816Z,28.50
2019-02-25T00:50:33.102Z,28.50
2019-02-25T00:53:25.811Z,28.50
2019-02-25T00:56:18.440Z,28.50
2019-02-25T00:59:10.590Z,28.50
2019-02-25T01:02:03.035Z,28.50
2019-02-25T01:04:55.477Z,28.50
2019-02-25T01:07:47.280Z,28.50
2019-02-25T01:10:39.723Z,28.50
2019-02-25T01:13:31.960Z,28.50
2019-02-25T01:16:24.085Z,28.50
2019-02-25T01:19:16.103Z,28.50
2019-02-25T01:22:08.476Z,28.50
2019-02-25T01:25:01.036Z,28.50
2019-02-25T01:27:54.351Z,28.40
2019-02-25T01:30:46.409Z,28.50
2019-02-25T01:33:38.732Z,28.50
2019-02-25T01:36:31.407Z,28.40
2019-02-25T01:39:23.699Z,28.40
2019-02-25T01:42:16.041Z,28.40
2019-02-25T01:45:09.561Z,28.40
2019-02-25T01:48:01.992Z,28.40
2019-02-25T01:50:54.776Z,28.40
2019-02-25T01:53:47.347Z,28.40
2019-02-25T01:56:39.521Z,28.40
2019-02-25T01:59:32.021Z,28.40
2019-02-25T02:02:24.016Z,28.40
2019-02-25T02:05:16.408Z,28.40
2019-02-25T02:08:08.628Z,28.40
2019-02-25T02:11:01.030Z,28.40
2019-02-25T02:13:53.279Z,28.40
2019-02-25T02:16:45.649Z,28.40
2019-02-25T02:19:37.692Z,28.40
2019-02-25T02:22:29.992Z,28.40
2019-02-25T02:25:22.400Z,28.40
2019-02-25T02:28:14.870Z,28.40
2019-02-25T02:31:07.335Z,28.40
2019-02-25T02:34:00.807Z,28.40
2019-02-25T02:36:53.249Z,28.40
2019-02-25T02:39:46.303Z,28.40
2019-02-25T02:42:38.928Z,28.40
2019-02-25T02:45:33.037Z,28.40
2019-02-25T02:48:30.128Z,28.40
2019-02-25T02:51:22.595Z,28.40
2019-02-25T02:54:15.573Z,28.40
2019-02-25T02:57:07.811Z,28.40
2019-02-25T03:00:00.574Z,28.40
2019-02-25T03:02:53.263Z,28.40
2019-02-25T03:05:47.176Z,28.40
2019-02-25T03:08:40.125Z,28.40
2019-02-25T03:11:32.857Z,28.40
2019-02-25T03:14:25.344Z,28.40
2019-02-25T03:17:18.205Z,28.40
2019-02-25T03:20:11.800Z,28.40
2019-02-25T03:23:04.443Z,28.40
2019-02-25T03:25:56.559Z,28.40
2019-02-25T03:28:49.439Z,28.40
2019-02-25T03:31:42.113Z,28.40
2019-02-25T03:34:34.612Z,28.40
2019-02-25T03:37:26.921Z,28.40
2019-02-25T03:40:20.196Z,28.40
2019-02-25T03:43:12.461Z,28.40
2019-02-25T03:46:07.972Z,28.40
2019-02-25T03:49:01.246Z,28.40
2019-02-25T03:51:54.180Z,28.40
2019-02-25T03:54:46.545Z,28.40
2019-02-25T03:57:39.233Z,28.40
2019-02-25T04:00:31.741Z,28.40
2019-02-25T04:03:24.641Z,28.40
2019-02-25T04:06:17.196Z,28.40
2019-02-25T04:09:09.948Z,28.40
2019-02-25T04:12:02.765Z,28.40
2019-02-25T04:14:54.916Z,28.40
2019-02-25T04:17:50.267Z,28.40
2019-02-25T04:20:43.915Z,28.40
2019-02-25T04:23:36.490Z,28.40
2019-02-25T04:26:32.675Z,28.40
2019-02-25T04:29:27.384Z,28.40
2019-02-25T04:32:21.675Z,28.40
2019-02-25T04:35:18.057Z,28.50
2019-02-25T04:38:11.305Z,28.50
2019-02-25T04:41:05.137Z,28.40
2019-02-25T04:43:58.180Z,28.50
2019-02-25T04:46:51.676Z,28.60
2019-02-25T04:49:45.641Z,28.60
2019-02-25T04:52:39.545Z,28.70
2019-02-25T04:55:33.018Z,28.70
2019-02-25T04:58:26.034Z,28.70
2019-02-25T05:01:19.223Z,28.70
2019-02-25T05:04:11.751Z,28.70
2019-02-25T05:07:04.118Z,28.70
2019-02-25T05:09:56.556Z,28.70
2019-02-25T05:12:55.288Z,28.70
2019-02-25T05:15:47.625Z,28.70
2019-02-25T05:18:40.181Z,28.70
2019-02-25T05:21:34.796Z,28.70
2019-02-25T05:24:34.309Z,28.70
2019-02-25T05:27:28.813Z,28.70
2019-02-25T05:30:23.960Z,28.70
2019-02-25T05:36:41.776Z,28.70
2019-02-25T05:39:44.558Z,28.70
2019-02-25T05:42:45.548Z,28.70
2019-02-25T05:45:47.220Z,28.50
2019-02-25T05:48:45.530Z,28.40
2019-02-25T05:51:40.818Z,28.30
2019-02-25T05:54:38.186Z,28.30
2019-02-25T05:57:36.201Z,28.30
2019-02-25T06:00:33.036Z,28.20
2019-02-25T06:03:28.509Z,28.30
2019-02-25T06:06:27.409Z,28.20
2019-02-25T06:09:23.932Z,28.20
2019-02-25T06:12:22.203Z,28.20
2019-02-25T06:15:24.174Z,28.10
2019-02-25T06:18:22.721Z,28.10
2019-02-25T06:21:23.176Z,28.10
2019-02-25T06:24:18.384Z,28.10
2019-02-25T06:27:11.840Z,28.00
2019-02-25T06:30:14.139Z,28.20
2019-02-25T06:33:10.904Z,28.10
2019-02-25T06:36:15.839Z,28.10
2019-02-25T06:39:10.970Z,28.20
2019-02-25T06:42:18.673Z,28.10
2019-02-25T06:45:21.676Z,28.10
2019-02-25T06:48:15.482Z,28.20
2019-02-25T06:51:09.511Z,28.10
2019-02-25T06:54:03.869Z,28.10
2019-02-25T06:57:03.528Z,28.10
2019-02-25T06:59:58.177Z,28.00
2019-02-25T07:02:54.862Z,28.00
2019-02-25T07:06:19.618Z,28.10
2019-02-25T07:09:24.213Z,28.00
2019-02-25T07:12:27.728Z,28.00
2019-02-25T07:15:31.916Z,28.10
2019-02-25T07:18:32.419Z,28.00
2019-02-25T07:21:31.120Z,28.10
2019-02-25T07:24:33.925Z,28.10
2019-02-25T07:27:49.152Z,28.10
2019-02-25T07:31:11.784Z,28.00
2019-02-25T07:34:12.906Z,28.10
2019-02-25T07:37:37.454Z,28.00
2019-02-25T07:40:55.878Z,28.00
2019-02-25T07:44:05.443Z,28.10
2019-02-25T07:47:09.988Z,28.00
2019-02-25T07:50:29.890Z,28.00
2019-02-25T07:53:43.413Z,28.00
2019-02-25T07:56:51.982Z,28.00
2019-02-25T08:00:00.682Z,28.10
2019-02-25T08:03:09.166Z,28.10
2019-02-25T08:06:18.737Z,28.00
2019-02-25T08:09:35.305Z,28.10
2019-02-25T08:12:38.199Z,28.00
2019-02-25T08:15:44.156Z,28.00
2019-02-25T08:18:57.508Z,28.00
2019-02-25T08:22:15.546Z,28.00
2019-02-25T08:25:26.634Z,28.00
2019-02-25T08:28:55.058Z,28.00
2019-02-25T08:32:25.010Z,28.00
2019-02-25T08:35:33.190Z,28.00
2019-02-25T08:38:33.990Z,28.00
2019-02-25T08:41:32.332Z,27.90
2019-02-25T08:44:33.561Z,28.00
2019-02-25T08:47:36.635Z,28.00
2019-02-25T08:50:29.168Z,27.90
2019-02-25T08:53:21.415Z,28.00
2019-02-25T08:56:14.978Z,27.90
2019-02-25T08:59:08.015Z,27.80
2019-02-25T09:02:01.259Z,27.90
2019-02-25T09:04:55.281Z,27.90
2019-02-25T09:07:47.923Z,27.80
2019-02-25T09:10:41.067Z,27.90
2019-02-25T09:13:33.533Z,27.90
2019-02-25T09:16:26.746Z,27.80
2019-02-25T09:19:21.279Z,27.80
2019-02-25T09:22:13.691Z,27.90
2019-02-25T09:25:05.741Z,27.80
2019-02-25T09:27:59.449Z,27.80
2019-02-25T09:30:52.588Z,27.90
2019-02-25T09:33:44.947Z,27.80
2019-02-25T09:36:37.301Z,27.90
2019-02-25T09:39:30.180Z,27.90
2019-02-25T09:42:24.660Z,28.00
2019-02-25T09:45:19.442Z,27.90
2019-02-25T09:48:13.370Z,28.00
2019-02-25T09:51:05.903Z,28.00
2019-02-25T09:53:58.632Z,27.80
2019-02-25T09:56:54.775Z,27.80
2019-02-25T09:59:48.535Z,27.90
2019-02-25T10:02:41.455Z,27.90
2019-02-25T10:05:36.372Z,27.80
2019-02-25T10:08:29.685Z,27.90
2019-02-25T10:11:23.393Z,27.90
2019-02-25T10:14:16.020Z,27.80
2019-02-25T10:17:08.329Z,27.80
2019-02-25T10:20:02.315Z,27.90
2019-02-25T10:22:56.056Z,27.90
2019-02-25T10:25:49.605Z,27.90
2019-02-25T10:28:43.408Z,27.90
2019-02-25T10:31:38.076Z,28.00
2019-02-25T10:34:31.010Z,27.90
2019-02-25T10:37:23.447Z,27.80
2019-02-25T10:40:20.267Z,28.00
2019-02-25T10:43:13.200Z,27.90
2019-02-25T10:46:06.935Z,27.90
2019-02-25T10:49:11.069Z,27.90
2019-02-25T10:51:55.788Z,27.90
2019-02-25T10:54:49.980Z,27.80
2019-02-25T10:57:44.475Z,27.90
2019-02-25T11:00:39.342Z,27.90
2019-02-25T11:03:31.119Z,27.90
2019-02-25T11:06:25.144Z,27.90
2019-02-25T11:09:29.623Z,27.90
2019-02-25T11:12:23.687Z,27.80
2019-02-25T11:15:16.425Z,27.80
2019-02-25T11:18:09.543Z,27.90
2019-02-25T11:21:05.928Z,27.90
2019-02-25T11:23:59.100Z,27.90
2019-02-25T11:26:51.187Z,28.00
2019-02-25T11:29:44.050Z,27.90
2019-02-25T11:32:37.609Z,27.90
2019-02-25T11:35:30.027Z,27.90
2019-02-25T11:38:23.762Z,27.80
2019-02-25T11:41:21.357Z,27.80
2019-02-25T11:44:17.120Z,27.90
2019-02-25T11:47:10.933Z,27.80
2019-02-25T11:50:03.883Z,27.80
2019-02-25T11:52:57.137Z,27.90
2019-02-25T11:55:50.077Z,27.90
2019-02-25T11:58:42.554Z,27.80
2019-02-25T12:01:35.470Z,27.90
2019-02-25T12:04:29.169Z,27.90
2019-02-25T12:07:22.468Z,27.80
2019-02-25T12:10:15.326Z,27.90
2019-02-25T12:13:07.835Z,27.90
2019-02-25T12:16:02.477Z,27.80
2019-02-25T12:18:56.371Z,27.90
2019-02-25T12:21:50.779Z,27.90
2019-02-25T12:24:45.257Z,27.80
2019-02-25T12:27:40.156Z,27.90
2019-02-25T12:30:34.447Z,27.90
2019-02-25T12:33:32.756Z,27.80
2019-02-25T12:36:33.932Z,27.80
2019-02-25T12:39:31.262Z,27.90
2019-02-25T12:42:29.902Z,27.80
2019-02-25T12:45:26.214Z,27.80
2019-02-25T12:48:27.049Z,27.90
2019-02-25T12:51:31.348Z,27.80
2019-02-25T12:54:26.812Z,27.80
2019-02-25T12:57:23.314Z,27.90
2019-02-25T13:00:20.565Z,27.80
2019-02-25T13:03:24.676Z,27.80
2019-02-25T13:06:27.808Z,27.90
2019-02-25T13:09:32.271Z,28.00
2019-02-25T13:12:37.225Z,28.10
2019-02-25T13:15:42.744Z,28.20
2019-02-25T13:18:47.377Z,28.20
2019-02-25T13:21:53.392Z,28.20
2019-02-25T13:24:57.037Z,28.20
2019-02-25T13:27:58.817Z,28.30
2019-02-25T13:31:10.275Z,28.30
2019-02-25T13:34:02.647Z,28.30
2019-02-25T13:37:02.014Z,28.30
2019-02-25T13:40:04.618Z,28.30
2019-02-25T13:43:05.103Z,28.30
2019-02-25T13:46:07.157Z,28.30
2019-02-25T13:49:09.368Z,28.30
2019-02-25T13:52:13.087Z,28.30
2019-02-25T13:55:17.457Z,28.40
2019-02-25T13:58:21.206Z,28.40
2019-02-25T14:01:30.053Z,28.40
2019-02-25T14:04:38.100Z,28.40
2019-02-25T14:07:46.358Z,28.40
2019-02-25T14:10:48.223Z,28.40
2019-02-25T14:13:53.233Z,28.40
2019-02-25T14:16:58.124Z,28.40
2019-02-25T14:20:02.434Z,28.40
2019-02-25T14:23:08.790Z,28.40
2019-02-25T14:26:11.707Z,28.40
2019-02-25T14:29:16.338Z,28.40
2019-02-25T14:32:20.220Z,28.40
2019-02-25T14:35:14.155Z,28.40
2019-02-25T14:38:09.654Z,28.40
2019-02-25T14:41:01.851Z,28.40
2019-02-25T14:43:56.031Z,28.40
2019-02-25T14:46:48.496Z,28.50
2019-02-25T14:49:42.774Z,28.40
2019-02-25T14:52:34.391Z,28.40
2019-02-25T14:55:27.929Z,28.40
2019-02-25T14:58:22.252Z,28.40
2019-02-25T15:01:14.402Z,28.40
2019-02-25T15:04:06.754Z,28.50
2019-02-25T15:06:59.183Z,28.50
2019-02-25T15:09:51.197Z,28.50
2019-02-25T15:12:43.845Z,28.50
2019-02-25T15:15:37.058Z,28.50
2019-02-25T15:18:31.310Z,28.40
2019-02-25T15:21:23.628Z,28.50
2019-02-25T15:24:16.359Z,28.50
2019-02-25T15:27:09.305Z,28.50
2019-02-25T15:30:03.755Z,28.50
2019-02-25T15:32:59.196Z,28.50
2019-02-25T15:35:51.413Z,28.50
2019-02-25T15:38:44.248Z,28.50
2019-02-25T15:41:38.505Z,28.50
2019-02-25T15:44:31.044Z,28.50
2019-02-25T15:47:23.710Z,28.50
2019-02-25T15:50:16.642Z,28.50
2019-02-25T15:53:09.924Z,28.50
2019-02-25T15:56:03.702Z,28.50
2019-02-25T15:58:58.841Z,28.50
2019-02-25T16:01:51.277Z,28.50
2019-02-25T16:04:43.766Z,28.50
2019-02-25T16:07:37.663Z,28.50
2019-02-25T16:10:30.076Z,28.50
2019-02-25T16:13:22.352Z,28.50
2019-02-25T16:16:14.698Z,28.50
2019-02-25T16:19:07.210Z,28.50
2019-02-25T16:22:00.558Z,28.50
2019-02-25T16:24:53.474Z,28.50
2019-02-25T16:27:49.848Z,28.50
2019-02-25T16:30:42.333Z,28.50
2019-02-25T16:33:35.359Z,28.50
2019-02-25T16:36:28.384Z,28.50
2019-02-25T16:39:22.001Z,28.50
2019-02-25T16:42:14.936Z,28.50
2019-02-25T16:45:13.935Z,28.50
2019-02-25T16:48:05.865Z,28.50
2019-02-25T16:50:58.002Z,28.50
2019-02-25T16:53:52.269Z,28.50
2019-02-25T16:56:44.321Z,28.50
2019-02-25T16:59:36.961Z,28.50
2019-02-25T17:02:30.215Z,28.50
2019-02-25T17:05:23.551Z,28.50
2019-02-25T17:08:20.081Z,28.50
2019-02-25T17:11:12.920Z,28.50
2019-02-25T17:14:06.457Z,28.50
2019-02-25T17:16:58.987Z,28.50
2019-02-25T17:19:53.835Z,28.50
2019-02-25T17:22:45.303Z,28.50
2019-02-25T17:25:38.954Z,28.50
2019-02-25T17:28:31.833Z,28.50
2019-02-25T17:31:24.573Z,28.50
2019-02-25T17:34:18.790Z,28.50
2019-02-25T17:37:12.485Z,28.50
2019-02-25T17:40:06.363Z,28.50
2019-02-25T17:42:58.245Z,28.50
2019-02-25T17:45:51.193Z,28.50
2019-02-25T17:48:45.990Z,28.50
2019-02-25T17:51:37.938Z,28.50
2019-02-25T17:54:31.231Z,28.50
2019-02-25T17:57:25.747Z,28.50
2019-02-25T18:00:20.509Z,28.40
2019-02-25T18:03:14.940Z,28.50
2019-02-25T18:06:07.523Z,28.50
2019-02-25T18:09:01.925Z,28.40
2019-02-25T18:11:55.252Z,28.40
2019-02-25T18:14:47.775Z,28.40
2019-02-25T18:17:42.591Z,28.40
2019-02-25T18:20:33.924Z,28.40
2019-02-25T18:23:26.731Z,28.40
2019-02-25T18:26:18.928Z,28.40
2019-02-25T18:29:11.704Z,28.40
2019-02-25T18:32:06.032Z,28.40
2019-02-25T18:35:00.470Z,28.40
2019-02-25T18:37:53.037Z,28.40
2019-02-25T18:40:47.768Z,28.40
2019-02-25T18:43:40.163Z,28.40
2019-02-25T18:46:32.946Z,28.40
2019-02-25T18:49:26.642Z,28.40
2019-02-25T18:52:20.235Z,28.40
2019-02-25T18:55:13.184Z,28.40
2019-02-25T18:58:07.791Z,28.40
2019-02-25T19:01:00.462Z,28.40
2019-02-25T19:03:54.695Z,28.40
2019-02-25T19:06:47.850Z,28.50
2019-02-25T19:09:40.839Z,28.50
2019-02-25T19:12:35.278Z,28.40
2019-02-25T19:15:27.567Z,28.40
2019-02-25T19:18:19.628Z,28.40
2019-02-25T19:21:11.852Z,28.40
2019-02-25T19:24:05.512Z,28.40
2019-02-25T19:26:58.029Z,28.40
2019-02-25T19:29:51.551Z,28.40
2019-02-25T19:32:43.867Z,28.40
2019-02-25T19:35:39.047Z,28.40
2019-02-25T19:38:32.013Z,28.40
2019-02-25T19:41:25.861Z,28.40
2019-02-25T19:44:17.860Z,28.40
2019-02-25T19:47:11.595Z,28.40
2019-02-25T19:50:05.185Z,28.40
2019-02-25T19:53:00.377Z,28.40
2019-02-25T19:55:53.748Z,28.40
2019-02-25T19:58:46.465Z,28.40
2019-02-25T20:01:39.364Z,28.40
2019-02-25T20:04:33.447Z,28.40
2019-02-25T20:07:27.938Z,28.40
2019-02-25T20:10:18.412Z,28.40
2019-02-25T20:13:11.100Z,28.40
2019-02-25T20:16:07.888Z,28.40
2019-02-25T20:18:58.603Z,28.40
2019-02-25T20:21:52.360Z,28.40
2019-02-25T20:24:46.061Z,28.30
2019-02-25T20:27:38.260Z,28.40
2019-02-25T20:30:30.652Z,28.30
2019-02-25T20:33:29.370Z,28.30
2019-02-25T20:36:19.255Z,28.30
2019-02-25T20:39:11.259Z,28.30
2019-02-25T20:42:03.604Z,28.30
2019-02-25T20:44:57.566Z,28.30
2019-02-25T20:47:50.125Z,28.30
2019-02-25T20:50:43.351Z,28.30
2019-02-25T20:53:37.700Z,28.30
2019-02-25T20:56:30.963Z,28.30
2019-02-25T20:59:24.020Z,28.30
2019-02-25T21:02:18.798Z,28.30
2019-02-25T21:05:14.172Z,28.30
2019-02-25T21:08:05.390Z,28.30
2019-02-25T21:10:59.852Z,28.30
2019-02-25T21:13:51.737Z,28.30
2019-02-25T21:16:43.934Z,28.30
2019-02-25T21:19:37.791Z,28.30
2019-02-25T21:22:31.728Z,28.30
2019-02-25T21:25:26.440Z,28.30
2019-02-25T21:28:17.587Z,28.30
2019-02-25T21:31:13.779Z,28.30
2019-02-25T21:34:04.377Z,28.30
2019-02-25T21:36:58.347Z,28.30
2019-02-25T21:39:51.016Z,28.30
2019-02-25T21:42:44.328Z,28.30
2019-02-25T21:45:36.816Z,28.30
2019-02-25T21:48:32.384Z,28.30
2019-02-25T21:51:24.168Z,28.30
2019-02-25T21:54:16.725Z,28.30
2019-02-25T21:57:09.735Z,28.30
2019-02-25T22:00:03.078Z,28.30
2019-02-25T22:02:55.755Z,28.30
2019-02-25T22:05:49.561Z,28.30
2019-02-25T22:08:41.982Z,28.30
2019-02-25T22:11:34.324Z,28.30
2019-02-25T22:14:26.961Z,28.30
2019-02-25T22:17:20.646Z,28.20
2019-02-25T22:20:14.372Z,28.20
2019-02-25T22:23:08.108Z,28.20
2019-02-25T22:26:00.664Z,28.20
2019-02-25T22:28:53.697Z,28.20
2019-02-25T22:31:46.831Z,28.20
2019-02-25T22:34:39.296Z,28.20
2019-02-25T22:37:31.610Z,28.20
2019-02-25T22:40:23.790Z,28.20
2019-02-25T22:43:16.833Z,28.20
2019-02-25T22:46:11.707Z,28.20
2019-02-25T22:49:05.008Z,28.20
2019-02-25T22:51:58.154Z,28.20
2019-02-25T22:54:52.295Z,28.20
2019-02-25T22:57:45.948Z,28.20
2019-02-25T23:00:48.530Z,28.20
2019-02-25T23:03:44.931Z,28.20
2019-02-25T23:06:39.771Z,28.20
2019-02-25T23:09:30.623Z,28.20
2019-02-25T23:12:24.271Z,28.20
2019-02-25T23:15:18.141Z,28.20
2019-02-25T23:18:13.913Z,28.20
2019-02-25T23:21:03.808Z,28.20
2019-02-25T23:23:58.110Z,28.20
2019-02-25T23:26:50.797Z,28.20
2019-02-25T23:29:47.762Z,28.10
2019-02-25T23:32:39.414Z,28.10
2019-02-25T23:35:32.356Z,28.10
2019-02-25T23:38:24.880Z,28.10
2019-02-25T23:41:17.123Z,28.10
2019-02-25T23:44:11.137Z,28.10
2019-02-25T23:47:08.874Z,28.20
2019-02-25T23:50:04.160Z,28.10
2019-02-25T23:52:55.100Z,28.10
2019-02-25T23:55:50.086Z,28.10
2019-02-25T23:58:42.956Z,28.10
